createdAt,value
2018-08-07T00:00:49.296Z,8.73
2018-08-07T00:03:16.188Z,8.53
2018-08-07T00:05:43.870Z,9.17
2018-08-07T00:08:19.270Z,8.77
2018-08-07T00:10:46.252Z,8.60
2018-08-07T00:13:13.899Z,8.60
2018-08-07T00:15:40.856Z,8.20
2018-08-07T00:18:08.513Z,9.47
2018-08-07T00:20:35.507Z,8.27
2018-08-07T00:23:02.413Z,8.10
2018-08-07T00:25:30.160Z,8.57
2018-08-07T00:27:57.060Z,7.83
2018-08-07T00:30:24.077Z,9.13
2018-08-07T00:32:51.689Z,8.57
2018-08-07T00:35:18.653Z,8.53
2018-08-07T00:37:45.633Z,8.30
2018-08-07T00:40:12.643Z,9.23
2018-08-07T00:42:39.553Z,9.30
2018-08-07T00:45:06.484Z,9.53
2018-08-07T00:47:33.350Z,9.07
2018-08-07T00:50:00.256Z,8.73
2018-08-07T00:52:27.965Z,8.70
2018-08-07T00:54:54.853Z,9.00
2018-08-07T00:57:22.531Z,8.90
2018-08-07T00:59:50.209Z,9.20
2018-08-07T01:02:17.193Z,8.87
2018-08-07T01:04:44.104Z,8.97
2018-08-07T01:07:11.069Z,9.40
2018-08-07T01:09:38.020Z,9.67
2018-08-07T01:12:05.028Z,9.03
2018-08-07T01:14:31.945Z,9.77
2018-08-07T01:16:58.863Z,8.73
2018-08-07T01:19:25.742Z,8.90
2018-08-07T01:21:53.463Z,9.53
2018-08-07T01:24:20.343Z,9.33
2018-08-07T01:26:47.251Z,10.07
2018-08-07T01:29:14.121Z,8.87
2018-08-07T01:31:41.125Z,9.00
2018-08-07T01:34:07.997Z,9.93
2018-08-07T01:36:35.007Z,8.40
2018-08-07T01:39:01.936Z,10.20
2018-08-07T01:41:28.861Z,9.10
2018-08-07T01:43:55.732Z,9.90
2018-08-07T01:46:22.642Z,9.60
2018-08-07T01:48:49.521Z,8.63
2018-08-07T01:51:17.171Z,9.73
2018-08-07T01:53:44.074Z,9.33
2018-08-07T01:56:10.984Z,9.43
2018-08-07T01:58:37.888Z,9.77
2018-08-07T02:01:04.863Z,8.83
2018-08-07T02:03:32.466Z,9.10
2018-08-07T02:05:59.364Z,14.33
2018-08-07T02:08:26.962Z,9.93
2018-08-07T02:10:53.924Z,9.70
2018-08-07T02:13:20.796Z,8.93
2018-08-07T02:15:47.737Z,9.27
2018-08-07T02:18:14.621Z,10.20
2018-08-07T02:20:41.533Z,9.77
2018-08-07T02:23:08.468Z,9.70
2018-08-07T02:25:35.349Z,9.23
2018-08-07T02:28:02.309Z,10.37
2018-08-07T02:30:29.183Z,10.37
2018-08-07T02:32:56.100Z,9.97
2018-08-07T02:35:22.945Z,10.27
2018-08-07T02:37:49.865Z,10.33
2018-08-07T02:40:16.741Z,10.00
2018-08-07T02:42:43.700Z,9.60
2018-08-07T02:45:10.586Z,9.90
2018-08-07T02:47:38.261Z,10.37
2018-08-07T02:50:05.941Z,11.23
2018-08-07T02:52:32.873Z,10.03
2018-08-07T02:54:59.769Z,11.50
2018-08-07T02:57:26.693Z,10.50
2018-08-07T02:59:53.674Z,11.07
2018-08-07T03:02:20.589Z,10.60
2018-08-07T03:04:47.445Z,10.60
2018-08-07T03:07:14.396Z,10.40
2018-08-07T03:09:41.285Z,10.80
2018-08-07T03:12:08.970Z,11.60
2018-08-07T03:14:35.857Z,10.80
2018-08-07T03:17:02.831Z,11.27
2018-08-07T03:19:30.438Z,11.53
2018-08-07T03:21:57.391Z,11.20
2018-08-07T03:24:24.237Z,12.07
2018-08-07T03:26:51.148Z,12.13
2018-08-07T03:29:17.999Z,10.90
2018-08-07T03:31:45.009Z,10.80
2018-08-07T03:34:12.611Z,10.37
2018-08-07T03:36:39.560Z,11.50
2018-08-07T03:39:06.447Z,10.30
2018-08-07T03:41:33.288Z,11.60
2018-08-07T03:44:00.252Z,12.57
2018-08-07T03:46:27.108Z,13.03
2018-08-07T03:48:54.825Z,12.50
2018-08-07T03:51:21.744Z,11.33
2018-08-07T03:53:48.686Z,12.83
2018-08-07T03:56:15.537Z,13.33
2018-08-07T03:58:42.464Z,12.53
2018-08-07T04:01:10.117Z,12.17
2018-08-07T04:03:37.787Z,13.67
2018-08-07T04:06:04.758Z,10.90
2018-08-07T04:08:31.667Z,11.90
2018-08-07T04:10:59.312Z,11.00
2018-08-07T04:13:26.324Z,12.73
2018-08-07T04:15:53.194Z,15.30
2018-08-07T04:18:36.120Z,14.53
2018-08-07T04:21:21.853Z,14.43
2018-08-07T04:24:10.223Z,13.77
2018-08-07T04:26:54.137Z,13.17
2018-08-07T04:29:37.119Z,13.60
2018-08-07T04:35:04.234Z,13.87
2018-08-07T04:37:46.582Z,12.50
2018-08-07T04:43:17.144Z,13.30
2018-08-07T04:45:59.593Z,12.90
2018-08-07T04:48:28.835Z,13.10
2018-08-07T04:50:58.753Z,17.27
2018-08-07T04:53:42.892Z,14.13
2018-08-07T04:56:25.659Z,13.53
2018-08-07T04:58:53.588Z,12.93
2018-08-07T05:01:20.597Z,14.50
2018-08-07T05:03:48.461Z,13.53
2018-08-07T05:06:15.361Z,13.77
2018-08-07T05:08:42.277Z,12.77
2018-08-07T05:11:09.184Z,13.60
2018-08-07T05:13:36.144Z,13.73
2018-08-07T05:16:03.808Z,12.97
2018-08-07T05:18:31.552Z,11.73
2018-08-07T05:20:58.434Z,11.77
2018-08-07T05:23:25.434Z,13.80
2018-08-07T05:26:01.522Z,13.60
2018-08-07T05:28:38.722Z,12.47
2018-08-07T05:31:05.970Z,11.77
2018-08-07T05:33:33.023Z,11.57
2018-08-07T05:36:00.087Z,12.83
2018-08-07T05:38:26.938Z,11.97
2018-08-07T05:40:57.932Z,11.93
2018-08-07T05:43:25.656Z,13.00
2018-08-07T05:45:52.618Z,12.10
2018-08-07T05:48:19.542Z,12.47
2018-08-07T05:50:46.742Z,14.67
2018-08-07T05:53:13.581Z,12.40
2018-08-07T05:55:40.554Z,12.77
2018-08-07T05:58:07.518Z,13.60
2018-08-07T06:00:34.510Z,19.40
2018-08-07T06:03:01.433Z,12.93
2018-08-07T06:05:42.762Z,17.47
2018-08-07T06:08:11.260Z,14.20
2018-08-07T06:10:38.240Z,13.03
2018-08-07T06:13:05.216Z,13.07
2018-08-07T06:15:32.304Z,13.03
2018-08-07T06:17:59.197Z,15.60
2018-08-07T06:20:26.117Z,13.57
2018-08-07T06:22:52.984Z,12.70
2018-08-07T06:25:19.965Z,13.27
2018-08-07T06:27:47.662Z,13.57
2018-08-07T06:30:14.690Z,13.03
2018-08-07T06:32:42.390Z,12.97
2018-08-07T06:35:09.408Z,12.20
2018-08-07T06:37:36.351Z,11.80
2018-08-07T06:40:03.370Z,12.93
2018-08-07T06:42:30.434Z,12.50
2018-08-07T06:44:58.459Z,12.23
2018-08-07T06:47:25.393Z,13.00
2018-08-07T06:49:54.340Z,12.17
2018-08-07T06:52:21.292Z,12.07
2018-08-07T06:54:48.302Z,11.57
2018-08-07T06:57:15.275Z,10.83
2018-08-07T06:59:42.231Z,10.00
2018-08-07T07:02:09.993Z,11.80
2018-08-07T07:04:37.726Z,11.33
2018-08-07T07:07:04.769Z,11.27
2018-08-07T07:09:31.768Z,12.13
2018-08-07T07:11:58.681Z,12.00
2018-08-07T07:14:25.560Z,10.83
2018-08-07T07:16:52.511Z,11.53
2018-08-07T07:19:19.447Z,11.40
2018-08-07T07:21:46.456Z,11.70
2018-08-07T07:24:13.371Z,11.13
2018-08-07T07:26:40.392Z,10.27
2018-08-07T07:29:07.307Z,10.47
2018-08-07T07:31:34.307Z,18.00
2018-08-07T07:34:01.252Z,12.90
2018-08-07T07:36:43.070Z,12.77
2018-08-07T07:39:10.786Z,11.87
2018-08-07T07:41:37.787Z,11.47
2018-08-07T07:44:13.749Z,11.90
2018-08-07T07:46:40.791Z,11.40
2018-08-07T07:49:07.689Z,12.53
2018-08-07T07:51:37.176Z,10.60
2018-08-07T07:54:04.192Z,11.30
2018-08-07T07:56:46.128Z,11.07
2018-08-07T07:59:13.886Z,11.97
2018-08-07T08:01:55.644Z,12.70
2018-08-07T08:04:24.191Z,11.47
2018-08-07T08:06:51.220Z,11.47
2018-08-07T08:09:18.840Z,11.90
2018-08-07T08:11:45.764Z,12.07
2018-08-07T08:14:12.691Z,11.67
2018-08-07T08:16:39.749Z,10.80
2018-08-07T08:19:06.636Z,11.80
2018-08-07T08:21:33.657Z,12.00
2018-08-07T08:24:00.540Z,11.77
2018-08-07T08:26:27.496Z,11.83
2018-08-07T08:28:55.163Z,12.33
2018-08-07T08:31:22.116Z,12.43
2018-08-07T08:33:49.057Z,11.90
2018-08-07T08:36:16.743Z,11.70
2018-08-07T08:38:43.652Z,11.27
2018-08-07T08:41:10.592Z,12.13
2018-08-07T08:43:38.534Z,12.00
2018-08-07T08:46:05.636Z,11.67
2018-08-07T08:51:31.486Z,11.13
2018-08-07T08:59:43.665Z,11.20
2018-08-07T09:02:26.880Z,10.27
2018-08-07T09:05:12.287Z,12.17
2018-08-07T09:07:56.965Z,10.90
2018-08-07T09:10:46.618Z,12.27
2018-08-07T09:16:16.511Z,10.83
2018-08-07T09:19:01.113Z,11.10
2018-08-07T09:21:42.978Z,11.67
2018-08-07T09:27:13.606Z,12.67
2018-08-07T09:29:56.635Z,11.40
2018-08-07T09:32:35.731Z,10.97
2018-08-07T09:35:17.408Z,11.20
2018-08-07T09:37:57.117Z,12.37
2018-08-07T09:43:29.691Z,11.50
2018-08-07T09:46:15.139Z,12.37
2018-08-07T09:49:00.113Z,11.07
2018-08-07T09:51:41.365Z,12.10
2018-08-07T09:54:22.893Z,12.07
2018-08-07T09:57:09.054Z,11.33
2018-08-07T10:02:34.821Z,11.80
2018-08-07T10:05:15.546Z,12.17
2018-08-07T10:07:56.684Z,12.07
2018-08-07T10:10:37.086Z,11.73
2018-08-07T10:13:16.187Z,11.13
2018-08-07T10:15:56.507Z,11.47
2018-08-07T10:18:37.694Z,11.13
2018-08-07T10:21:10.300Z,10.93
2018-08-07T10:23:46.835Z,10.97
2018-08-07T10:26:27.628Z,11.90
2018-08-07T10:29:07.965Z,11.63
2018-08-07T10:31:47.403Z,10.80
2018-08-07T10:34:15.462Z,10.77
2018-08-07T10:36:42.588Z,11.60
2018-08-07T10:39:16.202Z,11.27
2018-08-07T10:41:45.469Z,17.60
2018-08-07T10:44:14.421Z,12.93
2018-08-07T10:46:41.421Z,10.60
2018-08-07T10:49:11.351Z,10.53
2018-08-07T10:51:39.556Z,11.60
2018-08-07T10:54:06.722Z,10.93
2018-08-07T10:56:36.920Z,10.00
2018-08-07T10:59:04.445Z,10.83
2018-08-07T11:01:31.454Z,10.60
2018-08-07T11:03:59.636Z,9.67
2018-08-07T11:06:27.350Z,9.27
2018-08-07T11:08:54.580Z,8.97
2018-08-07T11:11:21.809Z,9.37
2018-08-07T11:13:49.565Z,9.63
2018-08-07T11:16:17.312Z,8.87
2018-08-07T11:18:44.303Z,9.00
2018-08-07T11:21:21.109Z,9.40
2018-08-07T11:23:48.490Z,9.27
2018-08-07T11:26:15.422Z,9.70
2018-08-07T11:28:42.401Z,9.70
2018-08-07T11:31:09.309Z,8.73
2018-08-07T11:33:36.260Z,9.37
2018-08-07T11:36:03.266Z,9.43
2018-08-07T11:38:30.229Z,9.37
2018-08-07T11:40:57.338Z,9.73
2018-08-07T11:43:29.778Z,10.30
2018-08-07T11:46:08.245Z,9.90
2018-08-07T11:48:43.108Z,10.13
2018-08-07T11:51:21.729Z,10.70
2018-08-07T11:54:04.345Z,10.60
2018-08-07T11:56:43.033Z,10.87
2018-08-07T12:05:12.570Z,9.60
2018-08-07T12:10:39.782Z,10.20
2018-08-07T12:13:12.891Z,9.20
2018-08-07T12:15:48.802Z,11.40
2018-08-07T12:18:23.200Z,10.27
2018-08-07T12:20:56.294Z,10.83
2018-08-07T12:23:30.473Z,10.83
2018-08-07T12:26:03.679Z,10.47
2018-08-07T12:28:36.358Z,12.23
2018-08-07T12:31:09.355Z,10.93
2018-08-07T12:33:49.543Z,9.60
2018-08-07T12:36:31.254Z,9.70
2018-08-07T12:39:04.331Z,11.47
2018-08-07T12:41:37.392Z,10.77
2018-08-07T12:44:17.569Z,10.30
2018-08-07T12:49:37.604Z,10.90
2018-08-07T12:52:17.816Z,10.43
2018-08-07T12:54:53.890Z,10.10
2018-08-07T12:57:33.109Z,11.50
2018-08-07T13:00:10.984Z,10.83
2018-08-07T13:02:48.459Z,11.43
2018-08-07T13:05:28.359Z,11.13
2018-08-07T13:08:02.242Z,11.50
2018-08-07T13:10:41.925Z,11.70
2018-08-07T13:13:15.528Z,10.63
2018-08-07T13:18:30.162Z,12.00
2018-08-07T13:21:11.592Z,11.73
2018-08-07T13:23:38.684Z,12.40
2018-08-07T13:26:05.712Z,10.60
2018-08-07T13:28:36.525Z,10.80
2018-08-07T13:31:04.199Z,11.70
2018-08-07T13:33:32.788Z,11.83
2018-08-07T13:36:00.319Z,11.47
2018-08-07T13:38:30.150Z,10.57
2018-08-07T13:40:57.134Z,12.33
2018-08-07T13:43:24.855Z,12.80
2018-08-07T13:45:51.883Z,13.47
2018-08-07T13:48:22.214Z,12.50
2018-08-07T13:50:59.514Z,13.00
2018-08-07T13:53:30.821Z,12.80
2018-08-07T13:56:02.025Z,13.23
2018-08-07T13:58:28.958Z,13.10
2018-08-07T14:00:56.929Z,12.50
2018-08-07T14:03:36.749Z,11.67
2018-08-07T14:06:04.405Z,12.47
2018-08-07T14:08:32.051Z,12.03
2018-08-07T14:10:59.226Z,11.90
2018-08-07T14:13:29.657Z,11.47
2018-08-07T14:15:56.923Z,13.23
2018-08-07T14:18:27.787Z,12.70
2018-08-07T14:20:54.859Z,13.67
2018-08-07T14:23:21.924Z,13.30
2018-08-07T14:25:48.896Z,13.50
2018-08-07T14:28:16.562Z,12.90
2018-08-07T14:30:46.613Z,12.97
2018-08-07T14:33:13.589Z,12.23
2018-08-07T14:35:43.434Z,12.47
2018-08-07T14:38:11.198Z,13.07
2018-08-07T14:40:42.668Z,11.57
2018-08-07T14:43:10.176Z,13.17
2018-08-07T14:45:37.057Z,12.80
2018-08-07T14:48:06.671Z,12.23
2018-08-07T14:50:34.241Z,12.13
2018-08-07T14:53:02.033Z,12.33
2018-08-07T14:55:28.980Z,13.20
2018-08-07T14:57:59.080Z,12.63
2018-08-07T15:00:29.638Z,13.87
2018-08-07T15:02:57.375Z,14.07
2018-08-07T15:05:26.935Z,12.77
2018-08-07T15:08:03.128Z,13.57
2018-08-07T15:10:31.012Z,14.43
2018-08-07T15:12:58.682Z,12.93
2018-08-07T15:15:30.069Z,14.10
2018-08-07T15:17:57.336Z,13.77
2018-08-07T15:20:24.499Z,13.10
2018-08-07T15:22:51.569Z,13.67
2018-08-07T15:25:18.507Z,13.20
2018-08-07T15:27:45.488Z,12.70
2018-08-07T15:30:12.472Z,11.83
2018-08-07T15:32:39.484Z,13.30
2018-08-07T15:35:08.113Z,13.67
2018-08-07T15:37:38.208Z,13.13
2018-08-07T15:40:05.643Z,13.10
2018-08-07T15:42:37.856Z,13.37
2018-08-07T15:45:05.696Z,12.53
2018-08-07T15:47:33.986Z,13.87
2018-08-07T15:50:04.307Z,12.37
2018-08-07T15:52:33.512Z,12.57
2018-08-07T15:55:04.549Z,11.73
2018-08-07T15:57:44.346Z,12.53
2018-08-07T16:00:22.948Z,12.40
2018-08-07T16:03:05.279Z,10.43
2018-08-07T16:05:37.894Z,11.47
2018-08-07T16:08:20.482Z,11.27
2018-08-07T16:11:02.362Z,10.47
2018-08-07T16:13:39.653Z,11.13
2018-08-07T16:16:07.129Z,10.07
2018-08-07T16:18:34.061Z,11.63
2018-08-07T16:21:00.994Z,10.27
2018-08-07T16:23:28.686Z,11.73
2018-08-07T16:25:56.793Z,10.87
2018-08-07T16:28:24.462Z,11.00
2018-08-07T16:30:51.460Z,11.30
2018-08-07T16:33:18.493Z,10.83
2018-08-07T16:35:52.558Z,11.97
2018-08-07T16:38:20.109Z,10.13
2018-08-07T16:40:47.302Z,11.33
2018-08-07T16:43:15.139Z,10.47
2018-08-07T16:45:45.420Z,10.17
2018-08-07T16:48:13.356Z,8.60
2018-08-07T16:50:44.073Z,9.13
2018-08-07T16:53:11.284Z,9.30
2018-08-07T16:55:38.377Z,8.90
2018-08-07T16:58:05.358Z,9.00
2018-08-07T17:00:33.078Z,8.30
2018-08-07T17:03:00.136Z,8.10
2018-08-07T17:05:27.888Z,7.90
2018-08-07T17:07:56.508Z,8.00
2018-08-07T17:10:25.274Z,8.53
2018-08-07T17:12:53.866Z,7.93
2018-08-07T17:15:37.332Z,8.10
2018-08-07T17:21:05.367Z,7.90
2018-08-07T17:23:35.653Z,7.90
2018-08-07T17:26:08.034Z,7.10
2018-08-07T17:28:35.065Z,7.20
2018-08-07T17:31:02.715Z,6.80
2018-08-07T17:33:33.450Z,7.50
2018-08-07T17:36:03.212Z,6.67
2018-08-07T17:38:30.176Z,7.80
2018-08-07T17:40:59.727Z,6.60
2018-08-07T17:43:28.915Z,7.57
2018-08-07T17:45:55.785Z,6.87
2018-08-07T17:48:22.820Z,7.23
2018-08-07T17:50:51.861Z,7.73
2018-08-07T17:53:19.415Z,6.90
2018-08-07T17:55:48.394Z,6.80
2018-08-07T17:58:15.601Z,6.73
2018-08-07T18:00:43.229Z,6.10
2018-08-07T18:03:10.332Z,6.70
2018-08-07T18:05:37.270Z,6.23
2018-08-07T18:08:04.972Z,6.17
2018-08-07T18:10:32.033Z,7.20
2018-08-07T18:12:59.071Z,6.57
2018-08-07T18:15:26.146Z,5.90
2018-08-07T18:17:53.022Z,6.87
2018-08-07T18:20:20.885Z,6.90
2018-08-07T18:22:47.914Z,8.10
2018-08-07T18:25:14.962Z,7.67
2018-08-07T18:27:42.053Z,5.73
2018-08-07T18:30:09.055Z,6.30
2018-08-07T18:32:36.078Z,6.10
2018-08-07T18:35:03.513Z,6.60
2018-08-07T18:37:30.435Z,6.73
2018-08-07T18:39:57.372Z,6.37
2018-08-07T18:42:25.074Z,6.63
2018-08-07T18:44:52.081Z,6.20
2018-08-07T18:47:19.039Z,7.13
2018-08-07T18:49:46.788Z,6.70
2018-08-07T18:52:14.431Z,6.00
2018-08-07T18:54:41.417Z,6.50
2018-08-07T18:57:08.437Z,7.10
2018-08-07T18:59:36.264Z,7.43
2018-08-07T19:02:03.373Z,6.67
2018-08-07T19:04:30.544Z,8.67
2018-08-07T19:06:57.564Z,7.27
2018-08-07T19:09:24.803Z,7.43
2018-08-07T19:11:52.302Z,8.63
2018-08-07T19:14:19.735Z,7.70
2018-08-07T19:16:47.212Z,8.77
2018-08-07T19:19:14.739Z,27.23
2018-08-07T19:21:42.179Z,17.97
2018-08-07T19:24:09.993Z,11.20
2018-08-07T19:26:37.911Z,7.87
2018-08-07T19:29:05.758Z,8.20
2018-08-07T19:31:33.975Z,8.60
2018-08-07T19:34:00.968Z,9.23
2018-08-07T19:36:29.361Z,7.37
2018-08-07T19:38:56.845Z,7.47
2018-08-07T19:41:29.680Z,7.13
2018-08-07T19:44:00.085Z,7.23
2018-08-07T19:46:27.652Z,8.37
2018-08-07T19:48:55.245Z,11.83
2018-08-07T19:51:22.488Z,7.70
2018-08-07T19:54:02.207Z,7.23
2018-08-07T19:56:44.203Z,8.50
2018-08-07T19:59:24.569Z,7.87
2018-08-07T20:01:53.401Z,7.53
2018-08-07T20:04:33.209Z,7.23
2018-08-07T20:07:15.624Z,19.27
2018-08-07T20:09:55.127Z,10.73
2018-08-07T20:12:37.253Z,7.17
2018-08-07T20:15:18.321Z,7.67
2018-08-07T20:23:27.724Z,8.17
2018-08-07T20:26:12.486Z,6.63
2018-08-07T20:28:53.589Z,7.37
2018-08-07T20:31:31.941Z,6.50
2018-08-07T20:34:12.786Z,6.83
2018-08-07T20:36:52.937Z,8.60
2018-08-07T20:39:32.284Z,7.30
2018-08-07T20:42:13.237Z,6.87
2018-08-07T20:44:55.470Z,6.63
2018-08-07T20:47:35.377Z,6.77
2018-08-07T20:50:16.535Z,8.47
2018-08-07T20:53:01.189Z,6.63
2018-08-07T20:55:42.426Z,6.50
2018-08-07T20:58:22.263Z,6.50
2018-08-07T21:01:02.415Z,6.57
2018-08-07T21:03:39.992Z,7.13
2018-08-07T21:06:24.321Z,6.83
2018-08-07T21:09:04.578Z,6.97
2018-08-07T21:11:46.168Z,7.27
2018-08-07T21:14:27.078Z,7.10
2018-08-07T21:17:08.286Z,8.07
2018-08-07T21:19:48.343Z,7.47
2018-08-07T21:22:30.155Z,7.30
2018-08-07T21:25:09.536Z,7.30
2018-08-07T21:27:47.467Z,7.03
2018-08-07T21:30:28.523Z,7.17
2018-08-07T21:33:08.566Z,7.43
2018-08-07T21:35:50.207Z,7.73
2018-08-07T21:44:08.488Z,7.23
2018-08-07T21:49:36.468Z,7.40
2018-08-07T21:52:03.429Z,8.10
2018-08-07T21:54:30.361Z,7.70
2018-08-07T21:57:05.247Z,7.30
2018-08-07T21:59:42.510Z,7.73
2018-08-07T22:02:10.257Z,8.00
2018-08-07T22:04:39.717Z,7.53
2018-08-07T22:07:07.218Z,8.13
2018-08-07T22:09:34.193Z,7.40
2018-08-07T22:12:14.835Z,7.90
2018-08-07T22:14:43.417Z,8.10
2018-08-07T22:17:14.994Z,8.00
2018-08-07T22:19:42.862Z,8.63
2018-08-07T22:22:16.114Z,7.47
2018-08-07T22:24:57.247Z,7.90
2018-08-07T22:27:40.564Z,7.97
2018-08-07T22:30:08.280Z,6.83
2018-08-07T22:32:35.200Z,7.53
2018-08-07T22:35:02.136Z,7.17
2018-08-07T22:37:29.100Z,7.97
2018-08-07T22:39:56.653Z,7.53
2018-08-07T22:42:27.209Z,7.17
2018-08-07T22:44:54.088Z,8.17
2018-08-07T22:47:21.087Z,7.03
2018-08-07T22:49:47.966Z,7.20
2018-08-07T22:52:30.159Z,7.40
2018-08-07T22:54:57.837Z,7.13
2018-08-07T23:00:15.409Z,7.33
2018-08-07T23:02:56.680Z,7.20
2018-08-07T23:05:24.624Z,6.10
2018-08-07T23:07:51.613Z,6.57
2018-08-07T23:10:19.240Z,6.60
2018-08-07T23:12:46.261Z,6.23
2018-08-07T23:15:13.267Z,7.80
2018-08-07T23:17:40.974Z,7.10
2018-08-07T23:20:07.917Z,6.53
2018-08-07T23:22:34.856Z,6.83
2018-08-07T23:25:01.726Z,6.40
2018-08-07T23:27:28.713Z,6.93
2018-08-07T23:29:56.321Z,7.43
2018-08-07T23:32:23.360Z,6.50
2018-08-07T23:34:50.256Z,7.17
2018-08-07T23:37:17.933Z,6.37
2018-08-07T23:39:44.796Z,6.60
2018-08-07T23:42:11.797Z,6.87
2018-08-07T23:44:38.648Z,7.37
2018-08-07T23:47:05.612Z,7.03
2018-08-07T23:49:33.257Z,7.10
2018-08-07T23:52:00.155Z,6.83
2018-08-07T23:54:27.124Z,6.80
2018-08-07T23:56:54.036Z,7.77
2018-08-07T23:59:20.952Z,7.37
